sensor_id;sensor_type;location;lat;lon;timestamp;P1;durP1;ratioP1;P2;durP2;ratioP2
35306;SDS011;21420;52.196;21.416;2022-11-20T00:01:09;82.22;;;44.25;;
35306;SDS011;21420;52.196;21.416;2022-11-20T00:03:39;73.12;;;43.15;;
35306;SDS011;21420;52.196;21.416;2022-11-20T00:06:07;75.55;;;44.40;;
35306;SDS011;21420;52.196;21.416;2022-11-20T00:08:37;79.30;;;44.13;;
35306;SDS011;21420;52.196;21.416;2022-11-20T00:11:04;75.70;;;43.45;;
35306;SDS011;21420;52.196;21.416;2022-11-20T00:13:36;75.45;;;44.13;;
35306;SDS011;21420;52.196;21.416;2022-11-20T00:16:04;76.95;;;43.15;;
35306;SDS011;21420;52.196;21.416;2022-11-20T00:18:34;72.65;;;41.60;;
35306;SDS011;21420;52.196;21.416;2022-11-20T00:21:07;74.42;;;42.93;;
35306;SDS011;21420;52.196;21.416;2022-11-20T00:23:41;78.37;;;42.08;;
35306;SDS011;21420;52.196;21.416;2022-11-20T00:26:14;81.00;;;43.75;;
35306;SDS011;21420;52.196;21.416;2022-11-20T00:28:41;68.65;;;41.40;;
35306;SDS011;21420;52.196;21.416;2022-11-20T00:31:11;79.63;;;43.17;;
35306;SDS011;21420;52.196;21.416;2022-11-20T00:33:40;75.57;;;44.08;;
35306;SDS011;21420;52.196;21.416;2022-11-20T00:36:09;75.78;;;42.73;;
35306;SDS011;21420;52.196;21.416;2022-11-20T00:38:38;77.20;;;42.53;;
35306;SDS011;21420;52.196;21.416;2022-11-20T00:41:06;81.40;;;43.58;;
35306;SDS011;21420;52.196;21.416;2022-11-20T00:43:34;78.60;;;44.73;;
35306;SDS011;21420;52.196;21.416;2022-11-20T00:46:08;81.37;;;46.55;;
35306;SDS011;21420;52.196;21.416;2022-11-20T00:48:42;86.67;;;46.13;;
35306;SDS011;21420;52.196;21.416;2022-11-20T00:51:09;82.53;;;47.00;;
35306;SDS011;21420;52.196;21.416;2022-11-20T00:53:39;88.90;;;47.98;;
35306;SDS011;21420;52.196;21.416;2022-11-20T00:56:07;87.42;;;46.85;;
35306;SDS011;21420;52.196;21.416;2022-11-20T00:58:38;86.35;;;45.35;;
35306;SDS011;21420;52.196;21.416;2022-11-20T01:01:07;85.42;;;45.70;;
35306;SDS011;21420;52.196;21.416;2022-11-20T01:03:37;83.33;;;45.67;;
35306;SDS011;21420;52.196;21.416;2022-11-20T01:06:11;82.35;;;45.90;;
35306;SDS011;21420;52.196;21.416;2022-11-20T01:08:40;85.60;;;46.08;;
35306;SDS011;21420;52.196;21.416;2022-11-20T01:11:10;90.85;;;48.02;;
35306;SDS011;21420;52.196;21.416;2022-11-20T01:13:41;83.33;;;45.40;;
35306;SDS011;21420;52.196;21.416;2022-11-20T01:16:13;79.80;;;43.92;;
35306;SDS011;21420;52.196;21.416;2022-11-20T01:18:40;81.53;;;44.65;;
35306;SDS011;21420;52.196;21.416;2022-11-20T01:21:10;84.42;;;46.90;;
35306;SDS011;21420;52.196;21.416;2022-11-20T01:23:43;84.00;;;46.02;;
35306;SDS011;21420;52.196;21.416;2022-11-20T01:26:15;77.45;;;44.18;;
35306;SDS011;21420;52.196;21.416;2022-11-20T01:28:45;90.07;;;45.00;;
35306;SDS011;21420;52.196;21.416;2022-11-20T01:31:17;78.37;;;44.25;;
35306;SDS011;21420;52.196;21.416;2022-11-20T01:33:43;77.05;;;44.85;;
35306;SDS011;21420;52.196;21.416;2022-11-20T01:36:12;81.17;;;44.13;;
35306;SDS011;21420;52.196;21.416;2022-11-20T01:38:40;84.55;;;45.98;;
35306;SDS011;21420;52.196;21.416;2022-11-20T01:41:07;85.42;;;44.73;;
35306;SDS011;21420;52.196;21.416;2022-11-20T01:43:36;79.90;;;43.73;;
35306;SDS011;21420;52.196;21.416;2022-11-20T01:46:17;74.30;;;42.48;;
35306;SDS011;21420;52.196;21.416;2022-11-20T01:54:16;74.72;;;41.68;;
35306;SDS011;21420;52.196;21.416;2022-11-20T01:56:45;79.15;;;43.10;;
35306;SDS011;21420;52.196;21.416;2022-11-20T01:59:14;75.10;;;42.73;;
35306;SDS011;21420;52.196;21.416;2022-11-20T02:04:09;73.60;;;41.65;;
35306;SDS011;21420;52.196;21.416;2022-11-20T02:06:40;73.40;;;41.65;;
35306;SDS011;21420;52.196;21.416;2022-11-20T02:09:13;76.07;;;42.40;;
35306;SDS011;21420;52.196;21.416;2022-11-20T02:11:40;75.37;;;43.25;;
35306;SDS011;21420;52.196;21.416;2022-11-20T02:14:06;73.22;;;42.10;;
35306;SDS011;21420;52.196;21.416;2022-11-20T02:16:35;79.77;;;42.38;;
35306;SDS011;21420;52.196;21.416;2022-11-20T02:19:06;73.55;;;43.23;;
35306;SDS011;21420;52.196;21.416;2022-11-20T02:21:44;74.92;;;42.60;;
35306;SDS011;21420;52.196;21.416;2022-11-20T02:24:17;77.35;;;43.28;;
35306;SDS011;21420;52.196;21.416;2022-11-20T02:26:54;77.32;;;43.02;;
35306;SDS011;21420;52.196;21.416;2022-11-20T02:29:40;77.53;;;42.67;;
35306;SDS011;21420;52.196;21.416;2022-11-20T02:32:23;75.05;;;43.33;;
35306;SDS011;21420;52.196;21.416;2022-11-20T02:34:52;77.78;;;42.83;;
35306;SDS011;21420;52.196;21.416;2022-11-20T02:37:19;73.20;;;42.48;;
35306;SDS011;21420;52.196;21.416;2022-11-20T02:39:47;75.08;;;42.67;;
35306;SDS011;21420;52.196;21.416;2022-11-20T02:42:17;80.45;;;43.58;;
35306;SDS011;21420;52.196;21.416;2022-11-20T02:44:44;79.75;;;42.85;;
35306;SDS011;21420;52.196;21.416;2022-11-20T02:47:10;71.22;;;41.25;;
35306;SDS011;21420;52.196;21.416;2022-11-20T02:49:36;70.67;;;42.53;;
35306;SDS011;21420;52.196;21.416;2022-11-20T02:52:03;74.17;;;43.20;;
35306;SDS011;21420;52.196;21.416;2022-11-20T02:54:29;69.53;;;41.13;;
35306;SDS011;21420;52.196;21.416;2022-11-20T02:56:56;74.15;;;41.88;;
35306;SDS011;21420;52.196;21.416;2022-11-20T02:59:22;69.85;;;39.78;;
35306;SDS011;21420;52.196;21.416;2022-11-20T03:01:48;68.60;;;40.95;;
35306;SDS011;21420;52.196;21.416;2022-11-20T03:04:14;72.42;;;41.25;;
35306;SDS011;21420;52.196;21.416;2022-11-20T03:06:40;71.90;;;42.78;;
35306;SDS011;21420;52.196;21.416;2022-11-20T03:09:07;72.65;;;41.35;;
35306;SDS011;21420;52.196;21.416;2022-11-20T03:11:33;71.72;;;42.33;;
35306;SDS011;21420;52.196;21.416;2022-11-20T03:14:01;65.67;;;40.30;;
35306;SDS011;21420;52.196;21.416;2022-11-20T03:19:04;71.67;;;39.33;;
35306;SDS011;21420;52.196;21.416;2022-11-20T03:21:32;61.63;;;38.20;;
35306;SDS011;21420;52.196;21.416;2022-11-20T03:23:59;70.55;;;41.10;;
35306;SDS011;21420;52.196;21.416;2022-11-20T03:26:26;64.92;;;38.28;;
35306;SDS011;21420;52.196;21.416;2022-11-20T03:28:54;66.40;;;38.85;;
35306;SDS011;21420;52.196;21.416;2022-11-20T03:33:52;68.12;;;38.30;;
35306;SDS011;21420;52.196;21.416;2022-11-20T03:36:19;63.55;;;37.90;;
35306;SDS011;21420;52.196;21.416;2022-11-20T03:38:46;67.08;;;37.33;;
35306;SDS011;21420;52.196;21.416;2022-11-20T03:41:15;79.70;;;42.20;;
35306;SDS011;21420;52.196;21.416;2022-11-20T03:43:51;90.45;;;48.48;;
35306;SDS011;21420;52.196;21.416;2022-11-20T03:46:21;79.17;;;43.78;;
35306;SDS011;21420;52.196;21.416;2022-11-20T03:48:48;88.00;;;45.90;;
35306;SDS011;21420;52.196;21.416;2022-11-20T03:53:49;71.72;;;40.60;;
35306;SDS011;21420;52.196;21.416;2022-11-20T03:56:19;71.17;;;41.60;;
35306;SDS011;21420;52.196;21.416;2022-11-20T03:58:49;64.65;;;38.58;;
35306;SDS011;21420;52.196;21.416;2022-11-20T04:01:20;67.00;;;39.85;;
35306;SDS011;21420;52.196;21.416;2022-11-20T04:03:45;67.27;;;39.20;;
35306;SDS011;21420;52.196;21.416;2022-11-20T04:06:19;74.95;;;40.43;;
35306;SDS011;21420;52.196;21.416;2022-11-20T04:08:49;69.72;;;40.88;;
35306;SDS011;21420;52.196;21.416;2022-11-20T04:11:17;71.07;;;40.33;;
35306;SDS011;21420;52.196;21.416;2022-11-20T04:13:49;67.80;;;39.15;;
35306;SDS011;21420;52.196;21.416;2022-11-20T04:16:19;67.20;;;38.73;;
35306;SDS011;21420;52.196;21.416;2022-11-20T04:18:50;68.28;;;38.50;;
35306;SDS011;21420;52.196;21.416;2022-11-20T04:21:19;73.12;;;41.37;;
35306;SDS011;21420;52.196;21.416;2022-11-20T04:23:45;66.37;;;39.58;;
35306;SDS011;21420;52.196;21.416;2022-11-20T04:26:11;65.15;;;38.33;;
35306;SDS011;21420;52.196;21.416;2022-11-20T04:28:38;63.15;;;38.10;;
35306;SDS011;21420;52.196;21.416;2022-11-20T04:31:06;64.22;;;38.45;;
35306;SDS011;21420;52.196;21.416;2022-11-20T04:33:38;63.30;;;37.85;;
35306;SDS011;21420;52.196;21.416;2022-11-20T04:36:09;68.85;;;37.93;;
35306;SDS011;21420;52.196;21.416;2022-11-20T04:38:44;63.68;;;39.33;;
35306;SDS011;21420;52.196;21.416;2022-11-20T04:41:13;65.75;;;38.15;;
35306;SDS011;21420;52.196;21.416;2022-11-20T04:43:47;77.82;;;43.05;;
35306;SDS011;21420;52.196;21.416;2022-11-20T04:46:19;72.35;;;41.33;;
35306;SDS011;21420;52.196;21.416;2022-11-20T04:48:48;76.33;;;43.35;;
35306;SDS011;21420;52.196;21.416;2022-11-20T04:51:14;76.95;;;42.75;;
35306;SDS011;21420;52.196;21.416;2022-11-20T04:53:40;78.30;;;43.25;;
35306;SDS011;21420;52.196;21.416;2022-11-20T04:56:08;83.55;;;43.05;;
35306;SDS011;21420;52.196;21.416;2022-11-20T04:58:36;78.28;;;43.25;;
35306;SDS011;21420;52.196;21.416;2022-11-20T05:01:07;85.07;;;44.88;;
35306;SDS011;21420;52.196;21.416;2022-11-20T05:03:41;85.62;;;47.88;;
35306;SDS011;21420;52.196;21.416;2022-11-20T05:06:10;75.62;;;42.83;;
35306;SDS011;21420;52.196;21.416;2022-11-20T05:08:38;75.52;;;42.65;;
35306;SDS011;21420;52.196;21.416;2022-11-20T05:11:06;76.33;;;43.58;;
35306;SDS011;21420;52.196;21.416;2022-11-20T05:13:35;77.17;;;44.35;;
35306;SDS011;21420;52.196;21.416;2022-11-20T05:16:07;79.65;;;45.05;;
35306;SDS011;21420;52.196;21.416;2022-11-20T05:18:33;73.17;;;40.98;;
35306;SDS011;21420;52.196;21.416;2022-11-20T05:21:00;70.50;;;41.50;;
35306;SDS011;21420;52.196;21.416;2022-11-20T05:23:27;70.17;;;39.00;;
35306;SDS011;21420;52.196;21.416;2022-11-20T05:25:55;67.47;;;37.83;;
35306;SDS011;21420;52.196;21.416;2022-11-20T05:28:22;61.55;;;36.28;;
35306;SDS011;21420;52.196;21.416;2022-11-20T05:30:49;67.15;;;36.55;;
35306;SDS011;21420;52.196;21.416;2022-11-20T05:33:16;63.35;;;37.38;;
35306;SDS011;21420;52.196;21.416;2022-11-20T05:35:43;79.20;;;45.43;;
35306;SDS011;21420;52.196;21.416;2022-11-20T05:38:09;84.13;;;45.38;;
35306;SDS011;21420;52.196;21.416;2022-11-20T05:40:36;77.15;;;41.77;;
35306;SDS011;21420;52.196;21.416;2022-11-20T05:43:02;71.90;;;40.55;;
35306;SDS011;21420;52.196;21.416;2022-11-20T05:45:28;71.20;;;40.00;;
35306;SDS011;21420;52.196;21.416;2022-11-20T05:47:57;64.72;;;38.90;;
35306;SDS011;21420;52.196;21.416;2022-11-20T05:50:27;65.80;;;37.93;;
35306;SDS011;21420;52.196;21.416;2022-11-20T05:52:53;71.37;;;40.63;;
35306;SDS011;21420;52.196;21.416;2022-11-20T05:55:19;76.57;;;44.85;;
35306;SDS011;21420;52.196;21.416;2022-11-20T05:57:46;79.32;;;45.23;;
35306;SDS011;21420;52.196;21.416;2022-11-20T06:00:15;96.78;;;51.05;;
35306;SDS011;21420;52.196;21.416;2022-11-20T06:02:41;86.10;;;46.37;;
35306;SDS011;21420;52.196;21.416;2022-11-20T06:05:08;78.57;;;46.30;;
35306;SDS011;21420;52.196;21.416;2022-11-20T06:07:34;74.77;;;41.30;;
35306;SDS011;21420;52.196;21.416;2022-11-20T06:10:00;90.95;;;44.93;;
35306;SDS011;21420;52.196;21.416;2022-11-20T06:12:26;78.75;;;43.63;;
35306;SDS011;21420;52.196;21.416;2022-11-20T06:14:52;73.28;;;40.00;;
35306;SDS011;21420;52.196;21.416;2022-11-20T06:17:18;65.92;;;36.55;;
35306;SDS011;21420;52.196;21.416;2022-11-20T06:19:45;68.37;;;39.27;;
35306;SDS011;21420;52.196;21.416;2022-11-20T06:22:11;68.30;;;38.73;;
35306;SDS011;21420;52.196;21.416;2022-11-20T06:24:37;67.42;;;39.10;;
35306;SDS011;21420;52.196;21.416;2022-11-20T06:27:03;67.85;;;38.45;;
35306;SDS011;21420;52.196;21.416;2022-11-20T06:29:31;64.37;;;38.33;;
35306;SDS011;21420;52.196;21.416;2022-11-20T06:31:57;67.95;;;37.23;;
35306;SDS011;21420;52.196;21.416;2022-11-20T06:34:23;64.97;;;37.20;;
35306;SDS011;21420;52.196;21.416;2022-11-20T06:36:49;66.47;;;36.75;;
35306;SDS011;21420;52.196;21.416;2022-11-20T06:39:15;69.70;;;37.70;;
35306;SDS011;21420;52.196;21.416;2022-11-20T06:41:41;71.87;;;41.40;;
35306;SDS011;21420;52.196;21.416;2022-11-20T06:44:07;70.85;;;40.43;;
35306;SDS011;21420;52.196;21.416;2022-11-20T06:46:34;65.80;;;40.10;;
35306;SDS011;21420;52.196;21.416;2022-11-20T06:49:00;72.40;;;41.55;;
35306;SDS011;21420;52.196;21.416;2022-11-20T06:51:26;68.20;;;38.28;;
35306;SDS011;21420;52.196;21.416;2022-11-20T06:53:52;67.70;;;39.27;;
35306;SDS011;21420;52.196;21.416;2022-11-20T06:56:20;64.70;;;37.23;;
35306;SDS011;21420;52.196;21.416;2022-11-20T06:58:46;59.83;;;36.20;;
35306;SDS011;21420;52.196;21.416;2022-11-20T07:01:13;58.28;;;37.13;;
35306;SDS011;21420;52.196;21.416;2022-11-20T07:03:40;65.30;;;38.88;;
35306;SDS011;21420;52.196;21.416;2022-11-20T07:06:07;85.55;;;47.80;;
35306;SDS011;21420;52.196;21.416;2022-11-20T07:08:34;123.02;;;66.33;;
35306;SDS011;21420;52.196;21.416;2022-11-20T07:11:05;130.18;;;67.62;;
35306;SDS011;21420;52.196;21.416;2022-11-20T07:13:33;105.22;;;57.05;;
35306;SDS011;21420;52.196;21.416;2022-11-20T07:16:00;62.93;;;39.60;;
35306;SDS011;21420;52.196;21.416;2022-11-20T07:18:33;62.62;;;36.58;;
35306;SDS011;21420;52.196;21.416;2022-11-20T07:21:01;58.55;;;37.38;;
35306;SDS011;21420;52.196;21.416;2022-11-20T07:23:29;66.30;;;38.00;;
35306;SDS011;21420;52.196;21.416;2022-11-20T07:25:55;65.57;;;43.25;;
35306;SDS011;21420;52.196;21.416;2022-11-20T07:28:21;64.40;;;40.78;;
35306;SDS011;21420;52.196;21.416;2022-11-20T07:30:51;59.75;;;37.73;;
35306;SDS011;21420;52.196;21.416;2022-11-20T07:33:19;55.12;;;37.70;;
35306;SDS011;21420;52.196;21.416;2022-11-20T07:35:45;59.03;;;37.25;;
35306;SDS011;21420;52.196;21.416;2022-11-20T07:38:12;52.13;;;35.13;;
35306;SDS011;21420;52.196;21.416;2022-11-20T07:40:38;54.93;;;37.20;;
35306;SDS011;21420;52.196;21.416;2022-11-20T07:43:04;50.95;;;36.20;;
35306;SDS011;21420;52.196;21.416;2022-11-20T07:45:31;52.48;;;34.65;;
35306;SDS011;21420;52.196;21.416;2022-11-20T07:47:57;49.88;;;34.92;;
35306;SDS011;21420;52.196;21.416;2022-11-20T07:50:23;53.35;;;35.90;;
35306;SDS011;21420;52.196;21.416;2022-11-20T07:52:50;56.10;;;38.88;;
35306;SDS011;21420;52.196;21.416;2022-11-20T07:55:16;57.90;;;38.55;;
35306;SDS011;21420;52.196;21.416;2022-11-20T07:57:42;58.58;;;38.40;;
35306;SDS011;21420;52.196;21.416;2022-11-20T08:00:10;56.63;;;37.48;;
35306;SDS011;21420;52.196;21.416;2022-11-20T08:02:40;55.40;;;38.48;;
35306;SDS011;21420;52.196;21.416;2022-11-20T08:05:07;54.27;;;36.53;;
35306;SDS011;21420;52.196;21.416;2022-11-20T08:07:40;52.67;;;36.88;;
35306;SDS011;21420;52.196;21.416;2022-11-20T08:10:05;53.20;;;37.87;;
35306;SDS011;21420;52.196;21.416;2022-11-20T08:12:33;51.70;;;37.28;;
35306;SDS011;21420;52.196;21.416;2022-11-20T08:15:18;53.28;;;38.60;;
35306;SDS011;21420;52.196;21.416;2022-11-20T08:17:44;55.38;;;39.55;;
35306;SDS011;21420;52.196;21.416;2022-11-20T08:20:11;49.55;;;36.85;;
35306;SDS011;21420;52.196;21.416;2022-11-20T08:22:37;55.28;;;39.58;;
35306;SDS011;21420;52.196;21.416;2022-11-20T08:25:04;59.55;;;44.20;;
35306;SDS011;21420;52.196;21.416;2022-11-20T08:27:31;48.95;;;37.05;;
35306;SDS011;21420;52.196;21.416;2022-11-20T08:29:58;53.48;;;36.95;;
35306;SDS011;21420;52.196;21.416;2022-11-20T08:32:24;49.93;;;36.28;;
35306;SDS011;21420;52.196;21.416;2022-11-20T08:34:52;51.88;;;37.23;;
35306;SDS011;21420;52.196;21.416;2022-11-20T08:37:18;52.30;;;36.98;;
35306;SDS011;21420;52.196;21.416;2022-11-20T08:39:44;54.75;;;38.33;;
35306;SDS011;21420;52.196;21.416;2022-11-20T08:42:12;52.80;;;37.23;;
35306;SDS011;21420;52.196;21.416;2022-11-20T08:44:38;57.30;;;38.55;;
35306;SDS011;21420;52.196;21.416;2022-11-20T08:47:04;47.10;;;36.28;;
35306;SDS011;21420;52.196;21.416;2022-11-20T08:49:30;49.42;;;37.25;;
35306;SDS011;21420;52.196;21.416;2022-11-20T08:51:56;51.77;;;38.73;;
35306;SDS011;21420;52.196;21.416;2022-11-20T08:54:23;55.03;;;39.10;;
35306;SDS011;21420;52.196;21.416;2022-11-20T08:56:49;54.45;;;37.85;;
35306;SDS011;21420;52.196;21.416;2022-11-20T08:59:15;47.83;;;37.78;;
35306;SDS011;21420;52.196;21.416;2022-11-20T09:01:41;49.48;;;37.75;;
35306;SDS011;21420;52.196;21.416;2022-11-20T09:04:09;52.10;;;37.38;;
35306;SDS011;21420;52.196;21.416;2022-11-20T09:06:37;51.28;;;37.98;;
35306;SDS011;21420;52.196;21.416;2022-11-20T09:09:03;52.53;;;37.93;;
35306;SDS011;21420;52.196;21.416;2022-11-20T09:11:29;49.50;;;36.90;;
35306;SDS011;21420;52.196;21.416;2022-11-20T09:13:55;48.52;;;37.70;;
35306;SDS011;21420;52.196;21.416;2022-11-20T09:16:21;51.60;;;36.42;;
35306;SDS011;21420;52.196;21.416;2022-11-20T09:18:49;48.73;;;36.17;;
35306;SDS011;21420;52.196;21.416;2022-11-20T09:21:16;52.08;;;36.25;;
35306;SDS011;21420;52.196;21.416;2022-11-20T09:23:44;48.85;;;36.28;;
35306;SDS011;21420;52.196;21.416;2022-11-20T09:26:12;50.20;;;37.53;;
35306;SDS011;21420;52.196;21.416;2022-11-20T09:28:39;50.67;;;37.15;;
35306;SDS011;21420;52.196;21.416;2022-11-20T09:31:06;53.05;;;36.42;;
35306;SDS011;21420;52.196;21.416;2022-11-20T09:33:35;50.85;;;36.58;;
35306;SDS011;21420;52.196;21.416;2022-11-20T09:36:02;56.25;;;37.98;;
35306;SDS011;21420;52.196;21.416;2022-11-20T09:38:28;53.60;;;37.98;;
35306;SDS011;21420;52.196;21.416;2022-11-20T09:41:02;53.00;;;36.08;;
35306;SDS011;21420;52.196;21.416;2022-11-20T09:43:35;52.20;;;35.95;;
35306;SDS011;21420;52.196;21.416;2022-11-20T09:46:28;52.50;;;37.42;;
35306;SDS011;21420;52.196;21.416;2022-11-20T09:51:57;56.15;;;38.58;;
35306;SDS011;21420;52.196;21.416;2022-11-20T09:54:32;58.70;;;38.83;;
35306;SDS011;21420;52.196;21.416;2022-11-20T09:57:05;55.70;;;38.88;;
35306;SDS011;21420;52.196;21.416;2022-11-20T09:59:39;59.95;;;38.83;;
35306;SDS011;21420;52.196;21.416;2022-11-20T10:05:10;53.50;;;38.13;;
35306;SDS011;21420;52.196;21.416;2022-11-20T10:07:48;53.33;;;36.95;;
35306;SDS011;21420;52.196;21.416;2022-11-20T10:30:30;46.75;;;34.20;;
35306;SDS011;21420;52.196;21.416;2022-11-20T10:33:06;43.35;;;34.60;;
35306;SDS011;21420;52.196;21.416;2022-11-20T10:35:37;41.40;;;32.98;;
35306;SDS011;21420;52.196;21.416;2022-11-20T10:38:05;41.92;;;34.03;;
35306;SDS011;21420;52.196;21.416;2022-11-20T10:40:36;43.50;;;33.88;;
35306;SDS011;21420;52.196;21.416;2022-11-20T10:46:05;44.42;;;34.60;;
35306;SDS011;21420;52.196;21.416;2022-11-20T10:48:38;41.30;;;33.55;;
35306;SDS011;21420;52.196;21.416;2022-11-20T10:56:48;39.47;;;31.40;;
35306;SDS011;21420;52.196;21.416;2022-11-20T10:59:35;39.08;;;32.95;;
35306;SDS011;21420;52.196;21.416;2022-11-20T11:02:18;38.70;;;31.27;;
35306;SDS011;21420;52.196;21.416;2022-11-20T11:05:02;36.93;;;32.58;;
35306;SDS011;21420;52.196;21.416;2022-11-20T11:07:35;41.18;;;32.05;;
35306;SDS011;21420;52.196;21.416;2022-11-20T11:12:48;38.85;;;31.60;;
35306;SDS011;21420;52.196;21.416;2022-11-20T11:15:24;42.73;;;33.38;;
35306;SDS011;21420;52.196;21.416;2022-11-20T11:17:57;43.05;;;34.85;;
35306;SDS011;21420;52.196;21.416;2022-11-20T11:20:25;42.98;;;34.13;;
35306;SDS011;21420;52.196;21.416;2022-11-20T11:26:02;45.20;;;34.97;;
35306;SDS011;21420;52.196;21.416;2022-11-20T11:28:32;42.45;;;33.98;;
35306;SDS011;21420;52.196;21.416;2022-11-20T11:30:59;42.73;;;32.95;;
35306;SDS011;21420;52.196;21.416;2022-11-20T11:33:29;41.65;;;33.45;;
35306;SDS011;21420;52.196;21.416;2022-11-20T11:35:59;40.73;;;34.08;;
35306;SDS011;21420;52.196;21.416;2022-11-20T11:41:04;45.05;;;34.10;;
35306;SDS011;21420;52.196;21.416;2022-11-20T11:43:35;39.78;;;32.93;;
35306;SDS011;21420;52.196;21.416;2022-11-20T11:46:28;36.60;;;30.88;;
35306;SDS011;21420;52.196;21.416;2022-11-20T11:48:58;41.48;;;31.55;;
35306;SDS011;21420;52.196;21.416;2022-11-20T11:57:32;35.25;;;28.17;;
35306;SDS011;21420;52.196;21.416;2022-11-20T12:00:14;34.50;;;28.50;;
35306;SDS011;21420;52.196;21.416;2022-11-20T12:05:28;108.50;;;66.75;;
35306;SDS011;21420;52.196;21.416;2022-11-20T12:14:29;54.05;;;40.10;;
35306;SDS011;21420;52.196;21.416;2022-11-20T12:17:03;36.90;;;29.57;;
35306;SDS011;21420;52.196;21.416;2022-11-20T12:19:30;41.92;;;30.95;;
35306;SDS011;21420;52.196;21.416;2022-11-20T12:25:08;45.10;;;34.18;;
35306;SDS011;21420;52.196;21.416;2022-11-20T12:30:34;54.98;;;40.28;;
35306;SDS011;21420;52.196;21.416;2022-11-20T12:36:16;59.70;;;42.67;;
35306;SDS011;21420;52.196;21.416;2022-11-20T12:41:51;58.20;;;43.35;;
35306;SDS011;21420;52.196;21.416;2022-11-20T12:45:13;59.42;;;42.43;;
35306;SDS011;21420;52.196;21.416;2022-11-20T12:51:34;59.35;;;41.55;;
35306;SDS011;21420;52.196;21.416;2022-11-20T12:59:24;58.92;;;41.65;;
35306;SDS011;21420;52.196;21.416;2022-11-20T13:08:12;63.90;;;44.80;;
35306;SDS011;21420;52.196;21.416;2022-11-20T13:10:41;63.17;;;45.25;;
35306;SDS011;21420;52.196;21.416;2022-11-20T13:13:15;64.40;;;44.33;;
35306;SDS011;21420;52.196;21.416;2022-11-20T13:15:56;57.55;;;39.90;;
35306;SDS011;21420;52.196;21.416;2022-11-20T13:18:29;62.05;;;40.92;;
35306;SDS011;21420;52.196;21.416;2022-11-20T13:21:00;59.35;;;40.90;;
35306;SDS011;21420;52.196;21.416;2022-11-20T13:23:28;57.65;;;41.00;;
35306;SDS011;21420;52.196;21.416;2022-11-20T13:26:05;53.87;;;39.33;;
35306;SDS011;21420;52.196;21.416;2022-11-20T13:28:45;57.45;;;39.08;;
35306;SDS011;21420;52.196;21.416;2022-11-20T13:31:32;65.50;;;40.65;;
35306;SDS011;21420;52.196;21.416;2022-11-20T13:34:02;65.52;;;41.73;;
35306;SDS011;21420;52.196;21.416;2022-11-20T13:36:31;64.65;;;42.62;;
35306;SDS011;21420;52.196;21.416;2022-11-20T13:38:59;64.12;;;41.70;;
35306;SDS011;21420;52.196;21.416;2022-11-20T13:41:30;61.00;;;41.15;;
35306;SDS011;21420;52.196;21.416;2022-11-20T13:44:48;57.90;;;39.38;;
35306;SDS011;21420;52.196;21.416;2022-11-20T13:47:00;63.45;;;42.38;;
35306;SDS011;21420;52.196;21.416;2022-11-20T13:49:31;65.80;;;45.75;;
35306;SDS011;21420;52.196;21.416;2022-11-20T14:01:09;70.78;;;46.68;;
35306;SDS011;21420;52.196;21.416;2022-11-20T14:03:54;68.02;;;45.88;;
35306;SDS011;21420;52.196;21.416;2022-11-20T14:06:27;73.40;;;48.20;;
35306;SDS011;21420;52.196;21.416;2022-11-20T14:08:57;67.00;;;45.92;;
35306;SDS011;21420;52.196;21.416;2022-11-20T14:11:30;67.72;;;45.92;;
35306;SDS011;21420;52.196;21.416;2022-11-20T14:16:35;67.53;;;45.28;;
35306;SDS011;21420;52.196;21.416;2022-11-20T14:19:35;66.50;;;45.25;;
35306;SDS011;21420;52.196;21.416;2022-11-20T14:21:52;66.92;;;45.48;;
35306;SDS011;21420;52.196;21.416;2022-11-20T14:24:35;68.67;;;43.63;;
35306;SDS011;21420;52.196;21.416;2022-11-20T14:27:02;62.48;;;42.23;;
35306;SDS011;21420;52.196;21.416;2022-11-20T14:29:29;66.80;;;43.08;;
35306;SDS011;21420;52.196;21.416;2022-11-20T14:32:01;71.95;;;45.33;;
35306;SDS011;21420;52.196;21.416;2022-11-20T14:34:30;73.35;;;45.58;;
35306;SDS011;21420;52.196;21.416;2022-11-20T14:37:00;79.97;;;46.18;;
35306;SDS011;21420;52.196;21.416;2022-11-20T14:39:34;82.75;;;48.63;;
35306;SDS011;21420;52.196;21.416;2022-11-20T14:42:13;81.45;;;48.92;;
35306;SDS011;21420;52.196;21.416;2022-11-20T14:44:43;86.92;;;49.73;;
35306;SDS011;21420;52.196;21.416;2022-11-20T14:47:12;71.53;;;45.48;;
35306;SDS011;21420;52.196;21.416;2022-11-20T14:49:42;76.80;;;46.45;;
35306;SDS011;21420;52.196;21.416;2022-11-20T14:52:18;78.05;;;49.38;;
35306;SDS011;21420;52.196;21.416;2022-11-20T14:54:49;92.25;;;53.80;;
35306;SDS011;21420;52.196;21.416;2022-11-20T14:57:21;114.70;;;64.58;;
35306;SDS011;21420;52.196;21.416;2022-11-20T15:02:45;98.35;;;55.17;;
35306;SDS011;21420;52.196;21.416;2022-11-20T15:05:16;112.12;;;60.83;;
35306;SDS011;21420;52.196;21.416;2022-11-20T15:07:47;126.07;;;66.28;;
35306;SDS011;21420;52.196;21.416;2022-11-20T15:10:21;148.85;;;77.78;;
35306;SDS011;21420;52.196;21.416;2022-11-20T15:12:55;97.37;;;54.15;;
35306;SDS011;21420;52.196;21.416;2022-11-20T15:15:29;82.97;;;50.92;;
35306;SDS011;21420;52.196;21.416;2022-11-20T15:18:03;73.75;;;44.90;;
35306;SDS011;21420;52.196;21.416;2022-11-20T15:20:30;69.72;;;41.88;;
35306;SDS011;21420;52.196;21.416;2022-11-20T15:23:00;75.03;;;44.50;;
35306;SDS011;21420;52.196;21.416;2022-11-20T15:25:26;68.70;;;40.40;;
35306;SDS011;21420;52.196;21.416;2022-11-20T15:27:56;87.67;;;48.75;;
35306;SDS011;21420;52.196;21.416;2022-11-20T15:30:44;75.55;;;47.50;;
35306;SDS011;21420;52.196;21.416;2022-11-20T15:33:14;80.97;;;49.08;;
35306;SDS011;21420;52.196;21.416;2022-11-20T15:35:43;79.77;;;46.37;;
35306;SDS011;21420;52.196;21.416;2022-11-20T15:38:11;81.82;;;43.98;;
35306;SDS011;21420;52.196;21.416;2022-11-20T15:40:37;85.90;;;46.05;;
35306;SDS011;21420;52.196;21.416;2022-11-20T15:43:04;75.25;;;42.78;;
35306;SDS011;21420;52.196;21.416;2022-11-20T15:45:36;72.15;;;42.25;;
35306;SDS011;21420;52.196;21.416;2022-11-20T15:48:12;86.95;;;47.17;;
35306;SDS011;21420;52.196;21.416;2022-11-20T15:53:57;79.80;;;47.62;;
35306;SDS011;21420;52.196;21.416;2022-11-20T15:56:25;73.75;;;44.53;;
35306;SDS011;21420;52.196;21.416;2022-11-20T15:58:51;75.97;;;46.08;;
35306;SDS011;21420;52.196;21.416;2022-11-20T16:01:19;77.90;;;44.70;;
35306;SDS011;21420;52.196;21.416;2022-11-20T16:03:47;82.57;;;47.75;;
35306;SDS011;21420;52.196;21.416;2022-11-20T16:06:14;75.62;;;45.40;;
35306;SDS011;21420;52.196;21.416;2022-11-20T16:08:42;74.62;;;44.55;;
35306;SDS011;21420;52.196;21.416;2022-11-20T16:11:13;79.85;;;49.23;;
35306;SDS011;21420;52.196;21.416;2022-11-20T16:13:41;69.75;;;43.45;;
35306;SDS011;21420;52.196;21.416;2022-11-20T16:16:28;68.40;;;42.93;;
35306;SDS011;21420;52.196;21.416;2022-11-20T16:19:02;69.85;;;41.85;;
35306;SDS011;21420;52.196;21.416;2022-11-20T16:21:28;78.60;;;45.15;;
35306;SDS011;21420;52.196;21.416;2022-11-20T16:26:25;77.53;;;43.87;;